Westminster Park, New York
Current Conditions -  °F | °C
As of 12:33 PM on Friday 19 Dec 2014 (Local Time) from KGTB Reporting Station
Light Snow Light Snow  
Wind Chill: 15°   Ceiling: 900
Heat Index: 21°   Visibility: 5mi
Dew Point: 16°   Wind: 5mph
Humidity: 80%   Direction: 330°NNW
Pressure: 30.11"   Gusts: NA
Location:  44.3057°N, 75.9374°W
Report Text: KGTB 191733Z AUTO 33004KT 5SM -SN BKN009 OVC016 M06/M09 A3011 RMK AO2 UPB1657E1725SNE1657B1725
Loading
Personal Weather Stations






























Interactive Weather Map New forecast layout! Learn more

10-Day Weather Forecast

Advertisements
Track Severe Weather on mobile